sensor_id;sensor_type;location;lat;lon;timestamp;temperature;humidity
25949;DHT22;13961;51.178;4.448;2023-04-01T00:01:01;10.40;99.90
25949;DHT22;13961;51.178;4.448;2023-04-01T00:03:28;10.40;99.90
25949;DHT22;13961;51.178;4.448;2023-04-01T00:05:55;10.30;99.90
25949;DHT22;13961;51.178;4.448;2023-04-01T00:08:23;10.40;99.90
25949;DHT22;13961;51.178;4.448;2023-04-01T00:10:49;10.40;99.90
25949;DHT22;13961;51.178;4.448;2023-04-01T00:13:15;10.40;99.90
25949;DHT22;13961;51.178;4.448;2023-04-01T00:15:42;10.60;99.90
25949;DHT22;13961;51.178;4.448;2023-04-01T00:18:08;10.50;99.90
25949;DHT22;13961;51.178;4.448;2023-04-01T00:20:34;10.60;99.90
25949;DHT22;13961;51.178;4.448;2023-04-01T00:23:00;10.50;99.90
25949;DHT22;13961;51.178;4.448;2023-04-01T00:25:25;10.50;99.90
25949;DHT22;13961;51.178;4.448;2023-04-01T00:27:51;10.50;99.90
25949;DHT22;13961;51.178;4.448;2023-04-01T00:30:17;10.40;99.90
25949;DHT22;13961;51.178;4.448;2023-04-01T00:32:43;10.40;99.90
25949;DHT22;13961;51.178;4.448;2023-04-01T00:35:09;10.50;99.90
25949;DHT22;13961;51.178;4.448;2023-04-01T00:37:36;10.40;99.90
25949;DHT22;13961;51.178;4.448;2023-04-01T00:40:03;10.50;99.90
25949;DHT22;13961;51.178;4.448;2023-04-01T00:42:31;10.40;99.90
25949;DHT22;13961;51.178;4.448;2023-04-01T00:44:56;10.40;99.90
25949;DHT22;13961;51.178;4.448;2023-04-01T00:47:24;10.30;99.90
25949;DHT22;13961;51.178;4.448;2023-04-01T00:49:52;10.40;99.90
25949;DHT22;13961;51.178;4.448;2023-04-01T00:52:23;10.50;99.90
25949;DHT22;13961;51.178;4.448;2023-04-01T00:54:56;10.40;99.90
25949;DHT22;13961;51.178;4.448;2023-04-01T00:57:31;10.40;99.90
25949;DHT22;13961;51.178;4.448;2023-04-01T00:59:57;10.40;99.90
25949;DHT22;13961;51.178;4.448;2023-04-01T01:02:24;10.40;99.90
25949;DHT22;13961;51.178;4.448;2023-04-01T01:04:50;10.40;99.90
25949;DHT22;13961;51.178;4.448;2023-04-01T01:09:57;10.40;99.90
25949;DHT22;13961;51.178;4.448;2023-04-01T01:28:31;10.60;99.90
25949;DHT22;13961;51.178;4.448;2023-04-01T01:33:56;10.60;99.90
25949;DHT22;13961;51.178;4.448;2023-04-01T01:36:31;10.60;99.90
25949;DHT22;13961;51.178;4.448;2023-04-01T01:39:03;10.60;99.90
25949;DHT22;13961;51.178;4.448;2023-04-01T01:41:32;10.50;99.90
25949;DHT22;13961;51.178;4.448;2023-04-01T01:43:59;10.50;99.90
25949;DHT22;13961;51.178;4.448;2023-04-01T01:46:28;10.30;99.90
25949;DHT22;13961;51.178;4.448;2023-04-01T01:48:56;10.30;99.90
25949;DHT22;13961;51.178;4.448;2023-04-01T01:51:23;10.20;99.90
25949;DHT22;13961;51.178;4.448;2023-04-01T01:53:49;10.10;99.90
25949;DHT22;13961;51.178;4.448;2023-04-01T01:56:18;10.10;99.90
25949;DHT22;13961;51.178;4.448;2023-04-01T01:58:48;10.20;99.90
25949;DHT22;13961;51.178;4.448;2023-04-01T02:01:26;10.30;99.90
25949;DHT22;13961;51.178;4.448;2023-04-01T02:03:53;10.30;99.90
25949;DHT22;13961;51.178;4.448;2023-04-01T02:06:22;10.20;99.90
25949;DHT22;13961;51.178;4.448;2023-04-01T02:09:00;10.20;99.90
25949;DHT22;13961;51.178;4.448;2023-04-01T02:11:35;10.20;99.90
25949;DHT22;13961;51.178;4.448;2023-04-01T02:14:15;10.10;99.90
25949;DHT22;13961;51.178;4.448;2023-04-01T02:17:17;10.30;99.90
25949;DHT22;13961;51.178;4.448;2023-04-01T02:19:52;10.20;99.90
25949;DHT22;13961;51.178;4.448;2023-04-01T02:22:21;10.20;99.90
25949;DHT22;13961;51.178;4.448;2023-04-01T02:24:50;10.30;99.90
25949;DHT22;13961;51.178;4.448;2023-04-01T02:27:18;10.20;99.90
25949;DHT22;13961;51.178;4.448;2023-04-01T02:29:44;10.20;99.90
25949;DHT22;13961;51.178;4.448;2023-04-01T02:32:10;10.30;99.90
25949;DHT22;13961;51.178;4.448;2023-04-01T02:34:39;10.30;99.90
25949;DHT22;13961;51.178;4.448;2023-04-01T02:37:05;10.20;99.90
25949;DHT22;13961;51.178;4.448;2023-04-01T02:39:30;10.20;99.90
25949;DHT22;13961;51.178;4.448;2023-04-01T02:41:56;10.20;99.90
25949;DHT22;13961;51.178;4.448;2023-04-01T02:44:22;10.10;99.90
25949;DHT22;13961;51.178;4.448;2023-04-01T02:46:47;10.10;99.90
25949;DHT22;13961;51.178;4.448;2023-04-01T02:49:13;10.10;99.90
25949;DHT22;13961;51.178;4.448;2023-04-01T02:51:39;10.20;99.90
25949;DHT22;13961;51.178;4.448;2023-04-01T02:54:05;10.10;99.90
25949;DHT22;13961;51.178;4.448;2023-04-01T02:56:30;10.10;99.90
25949;DHT22;13961;51.178;4.448;2023-04-01T02:58:57;10.10;99.90
25949;DHT22;13961;51.178;4.448;2023-04-01T03:01:23;10.10;99.90
25949;DHT22;13961;51.178;4.448;2023-04-01T03:03:48;10.10;99.90
25949;DHT22;13961;51.178;4.448;2023-04-01T03:06:16;10.10;99.90
25949;DHT22;13961;51.178;4.448;2023-04-01T03:08:42;9.90;99.90
25949;DHT22;13961;51.178;4.448;2023-04-01T03:11:09;9.90;99.90
25949;DHT22;13961;51.178;4.448;2023-04-01T03:13:35;9.90;99.90
25949;DHT22;13961;51.178;4.448;2023-04-01T03:16:01;9.90;99.90
25949;DHT22;13961;51.178;4.448;2023-04-01T03:18:27;10.00;99.90
25949;DHT22;13961;51.178;4.448;2023-04-01T03:20:53;10.00;99.90
25949;DHT22;13961;51.178;4.448;2023-04-01T03:23:20;10.10;99.90
25949;DHT22;13961;51.178;4.448;2023-04-01T03:25:47;10.10;99.90
25949;DHT22;13961;51.178;4.448;2023-04-01T03:28:13;10.00;99.90
25949;DHT22;13961;51.178;4.448;2023-04-01T03:30:39;10.10;99.90
25949;DHT22;13961;51.178;4.448;2023-04-01T03:33:06;10.00;99.90
25949;DHT22;13961;51.178;4.448;2023-04-01T03:35:32;9.90;99.90
25949;DHT22;13961;51.178;4.448;2023-04-01T03:37:58;9.90;99.90
25949;DHT22;13961;51.178;4.448;2023-04-01T03:40:24;9.90;99.90
25949;DHT22;13961;51.178;4.448;2023-04-01T03:42:52;9.80;99.90
25949;DHT22;13961;51.178;4.448;2023-04-01T03:45:18;9.80;99.90
25949;DHT22;13961;51.178;4.448;2023-04-01T03:47:45;9.80;99.90
25949;DHT22;13961;51.178;4.448;2023-04-01T03:50:11;9.80;99.90
25949;DHT22;13961;51.178;4.448;2023-04-01T03:52:37;9.90;99.90
25949;DHT22;13961;51.178;4.448;2023-04-01T03:55:02;9.80;99.90
25949;DHT22;13961;51.178;4.448;2023-04-01T03:57:30;9.80;99.90
25949;DHT22;13961;51.178;4.448;2023-04-01T03:59:56;9.80;99.90
25949;DHT22;13961;51.178;4.448;2023-04-01T04:02:22;9.70;99.90
25949;DHT22;13961;51.178;4.448;2023-04-01T04:04:48;9.80;99.90
25949;DHT22;13961;51.178;4.448;2023-04-01T04:07:14;9.90;99.90
25949;DHT22;13961;51.178;4.448;2023-04-01T04:09:40;9.90;99.90
25949;DHT22;13961;51.178;4.448;2023-04-01T04:12:06;9.90;99.90
25949;DHT22;13961;51.178;4.448;2023-04-01T04:14:32;9.90;99.90
25949;DHT22;13961;51.178;4.448;2023-04-01T04:16:57;9.90;99.90
25949;DHT22;13961;51.178;4.448;2023-04-01T04:19:23;9.90;99.90
25949;DHT22;13961;51.178;4.448;2023-04-01T04:21:49;9.80;99.90
25949;DHT22;13961;51.178;4.448;2023-04-01T04:24:15;9.90;99.90
25949;DHT22;13961;51.178;4.448;2023-04-01T04:26:40;9.90;99.90
25949;DHT22;13961;51.178;4.448;2023-04-01T04:29:06;9.80;99.90
25949;DHT22;13961;51.178;4.448;2023-04-01T04:31:33;9.80;99.90
25949;DHT22;13961;51.178;4.448;2023-04-01T04:34:00;9.80;99.90
25949;DHT22;13961;51.178;4.448;2023-04-01T04:36:26;9.70;99.90
25949;DHT22;13961;51.178;4.448;2023-04-01T04:38:52;9.80;99.90
25949;DHT22;13961;51.178;4.448;2023-04-01T04:41:19;9.80;99.90
25949;DHT22;13961;51.178;4.448;2023-04-01T04:43:54;9.80;99.90
25949;DHT22;13961;51.178;4.448;2023-04-01T04:46:21;9.70;99.90
25949;DHT22;13961;51.178;4.448;2023-04-01T04:48:48;9.70;99.90
25949;DHT22;13961;51.178;4.448;2023-04-01T04:51:21;9.60;99.90
25949;DHT22;13961;51.178;4.448;2023-04-01T04:53:49;9.60;99.90
25949;DHT22;13961;51.178;4.448;2023-04-01T04:56:21;9.70;99.90
25949;DHT22;13961;51.178;4.448;2023-04-01T04:58:52;9.70;99.90
25949;DHT22;13961;51.178;4.448;2023-04-01T05:01:24;9.70;99.90
25949;DHT22;13961;51.178;4.448;2023-04-01T05:03:50;9.60;99.90
25949;DHT22;13961;51.178;4.448;2023-04-01T05:06:16;9.60;99.90
25949;DHT22;13961;51.178;4.448;2023-04-01T05:08:43;9.60;99.90
25949;DHT22;13961;51.178;4.448;2023-04-01T05:11:12;9.60;99.90
25949;DHT22;13961;51.178;4.448;2023-04-01T05:13:38;9.60;99.90
25949;DHT22;13961;51.178;4.448;2023-04-01T05:16:08;9.60;99.90
25949;DHT22;13961;51.178;4.448;2023-04-01T05:18:35;9.60;99.90
25949;DHT22;13961;51.178;4.448;2023-04-01T05:21:00;9.70;99.90
25949;DHT22;13961;51.178;4.448;2023-04-01T05:23:31;9.70;99.90
25949;DHT22;13961;51.178;4.448;2023-04-01T05:25:57;9.70;99.90
25949;DHT22;13961;51.178;4.448;2023-04-01T05:28:24;9.40;99.90
25949;DHT22;13961;51.178;4.448;2023-04-01T05:30:51;9.50;99.90
25949;DHT22;13961;51.178;4.448;2023-04-01T05:33:19;9.70;99.90
25949;DHT22;13961;51.178;4.448;2023-04-01T05:35:45;9.60;99.90
25949;DHT22;13961;51.178;4.448;2023-04-01T05:38:12;9.60;99.90
25949;DHT22;13961;51.178;4.448;2023-04-01T05:40:39;9.70;99.90
25949;DHT22;13961;51.178;4.448;2023-04-01T05:43:06;9.60;99.90
25949;DHT22;13961;51.178;4.448;2023-04-01T05:45:31;9.70;99.90
25949;DHT22;13961;51.178;4.448;2023-04-01T05:47:58;9.60;99.90
25949;DHT22;13961;51.178;4.448;2023-04-01T05:50:27;9.60;99.90
25949;DHT22;13961;51.178;4.448;2023-04-01T05:52:56;9.60;99.90
25949;DHT22;13961;51.178;4.448;2023-04-01T05:55:26;9.60;99.90
25949;DHT22;13961;51.178;4.448;2023-04-01T05:57:55;9.80;99.90
25949;DHT22;13961;51.178;4.448;2023-04-01T06:00:21;9.60;99.90
25949;DHT22;13961;51.178;4.448;2023-04-01T06:02:47;9.50;99.90
25949;DHT22;13961;51.178;4.448;2023-04-01T06:05:20;9.40;99.90
25949;DHT22;13961;51.178;4.448;2023-04-01T06:07:46;9.70;99.90
25949;DHT22;13961;51.178;4.448;2023-04-01T06:10:18;9.60;99.90
25949;DHT22;13961;51.178;4.448;2023-04-01T06:21:34;9.70;99.90
25949;DHT22;13961;51.178;4.448;2023-04-01T06:35:11;9.60;99.90
25949;DHT22;13961;51.178;4.448;2023-04-01T06:38:06;9.60;99.90
25949;DHT22;13961;51.178;4.448;2023-04-01T06:43:25;9.70;99.90
25949;DHT22;13961;51.178;4.448;2023-04-01T06:46:02;9.50;99.90
25949;DHT22;13961;51.178;4.448;2023-04-01T06:48:44;9.60;99.90
25949;DHT22;13961;51.178;4.448;2023-04-01T06:54:10;9.60;99.90
25949;DHT22;13961;51.178;4.448;2023-04-01T06:56:41;9.60;99.90
25949;DHT22;13961;51.178;4.448;2023-04-01T06:59:21;9.60;99.90
25949;DHT22;13961;51.178;4.448;2023-04-01T07:05:02;9.80;99.90
25949;DHT22;13961;51.178;4.448;2023-04-01T07:07:42;9.70;99.90
25949;DHT22;13961;51.178;4.448;2023-04-01T07:10:31;9.70;99.90
25949;DHT22;13961;51.178;4.448;2023-04-01T07:13:00;9.70;99.90
25949;DHT22;13961;51.178;4.448;2023-04-01T07:15:33;9.70;99.90
25949;DHT22;13961;51.178;4.448;2023-04-01T07:18:05;9.60;99.90
25949;DHT22;13961;51.178;4.448;2023-04-01T07:20:36;9.60;99.90
25949;DHT22;13961;51.178;4.448;2023-04-01T07:23:06;9.80;99.90
25949;DHT22;13961;51.178;4.448;2023-04-01T07:25:43;10.00;99.90
25949;DHT22;13961;51.178;4.448;2023-04-01T07:28:15;9.80;99.90
25949;DHT22;13961;51.178;4.448;2023-04-01T07:30:53;9.90;99.90
25949;DHT22;13961;51.178;4.448;2023-04-01T07:33:33;9.60;99.90
25949;DHT22;13961;51.178;4.448;2023-04-01T07:36:16;9.70;99.90
25949;DHT22;13961;51.178;4.448;2023-04-01T07:41:51;9.90;99.90
25949;DHT22;13961;51.178;4.448;2023-04-01T07:50:18;9.70;99.90
25949;DHT22;13961;51.178;4.448;2023-04-01T07:58:28;10.00;99.90
25949;DHT22;13961;51.178;4.448;2023-04-01T08:00:57;9.90;99.90
25949;DHT22;13961;51.178;4.448;2023-04-01T08:06:24;10.00;99.90
25949;DHT22;13961;51.178;4.448;2023-04-01T08:11:43;10.00;99.90
25949;DHT22;13961;51.178;4.448;2023-04-01T08:14:39;10.00;99.90
25949;DHT22;13961;51.178;4.448;2023-04-01T08:20:10;10.10;99.90
25949;DHT22;13961;51.178;4.448;2023-04-01T08:22:57;10.20;99.90
25949;DHT22;13961;51.178;4.448;2023-04-01T08:25:29;10.10;99.90
25949;DHT22;13961;51.178;4.448;2023-04-01T08:28:14;10.10;99.90
25949;DHT22;13961;51.178;4.448;2023-04-01T08:30:47;10.30;99.90
25949;DHT22;13961;51.178;4.448;2023-04-01T08:38:43;10.40;99.90
25949;DHT22;13961;51.178;4.448;2023-04-01T08:41:33;10.30;99.90
25949;DHT22;13961;51.178;4.448;2023-04-01T08:44:20;10.10;99.90
25949;DHT22;13961;51.178;4.448;2023-04-01T08:52:37;10.10;99.90
25949;DHT22;13961;51.178;4.448;2023-04-01T08:55:30;10.20;99.90
25949;DHT22;13961;51.178;4.448;2023-04-01T08:58:07;9.90;99.90
25949;DHT22;13961;51.178;4.448;2023-04-01T09:06:38;10.10;99.90
25949;DHT22;13961;51.178;4.448;2023-04-01T09:28:22;10.30;99.90
25949;DHT22;13961;51.178;4.448;2023-04-01T09:36:45;10.60;99.90
25949;DHT22;13961;51.178;4.448;2023-04-01T09:45:04;10.70;99.90
25949;DHT22;13961;51.178;4.448;2023-04-01T09:48:02;10.80;99.90
25949;DHT22;13961;51.178;4.448;2023-04-01T09:51:01;10.80;99.90
25949;DHT22;13961;51.178;4.448;2023-04-01T09:53:37;10.90;99.90
25949;DHT22;13961;51.178;4.448;2023-04-01T09:59:24;10.60;99.90
25949;DHT22;13961;51.178;4.448;2023-04-01T10:13:56;10.70;99.90
25949;DHT22;13961;51.178;4.448;2023-04-01T10:27:54;10.80;99.90
25949;DHT22;13961;51.178;4.448;2023-04-01T10:30:41;10.70;99.90
25949;DHT22;13961;51.178;4.448;2023-04-01T10:33:36;10.80;99.90
25949;DHT22;13961;51.178;4.448;2023-04-01T10:58:08;10.80;99.90
25949;DHT22;13961;51.178;4.448;2023-04-01T11:01:03;10.90;99.90
25949;DHT22;13961;51.178;4.448;2023-04-01T11:06:30;10.90;99.90
25949;DHT22;13961;51.178;4.448;2023-04-01T11:11:41;10.50;99.90
25949;DHT22;13961;51.178;4.448;2023-04-01T11:17:09;10.70;99.90
25949;DHT22;13961;51.178;4.448;2023-04-01T11:33:57;10.50;99.90
25949;DHT22;13961;51.178;4.448;2023-04-01T11:44:29;10.50;99.90
25949;DHT22;13961;51.178;4.448;2023-04-01T11:50:04;10.40;99.90
25949;DHT22;13961;51.178;4.448;2023-04-01T12:01:25;11.00;99.90
25949;DHT22;13961;51.178;4.448;2023-04-01T12:04:16;10.70;99.90
25949;DHT22;13961;51.178;4.448;2023-04-01T12:15:54;11.20;99.90
25949;DHT22;13961;51.178;4.448;2023-04-01T12:21:35;11.20;99.90
25949;DHT22;13961;51.178;4.448;2023-04-01T12:29:44;11.00;99.90
25949;DHT22;13961;51.178;4.448;2023-04-01T12:32:26;11.50;99.90
25949;DHT22;13961;51.178;4.448;2023-04-01T12:35:10;11.50;99.90
25949;DHT22;13961;51.178;4.448;2023-04-01T12:38:21;11.70;99.90
25949;DHT22;13961;51.178;4.448;2023-04-01T12:44:41;11.10;99.90
25949;DHT22;13961;51.178;4.448;2023-04-01T12:53:19;12.00;99.90
25949;DHT22;13961;51.178;4.448;2023-04-01T12:55:49;12.00;99.90
25949;DHT22;13961;51.178;4.448;2023-04-01T13:17:12;10.90;99.90
25949;DHT22;13961;51.178;4.448;2023-04-01T13:25:24;10.90;99.90
25949;DHT22;13961;51.178;4.448;2023-04-01T13:31:00;11.10;99.90
25949;DHT22;13961;51.178;4.448;2023-04-01T13:33:37;11.00;99.90
25949;DHT22;13961;51.178;4.448;2023-04-01T13:44:37;11.10;99.90
25949;DHT22;13961;51.178;4.448;2023-04-01T14:06:06;11.60;99.90
25949;DHT22;13961;51.178;4.448;2023-04-01T14:19:40;11.20;99.90
25949;DHT22;13961;51.178;4.448;2023-04-01T14:27:52;11.60;99.90
25949;DHT22;13961;51.178;4.448;2023-04-01T14:34:06;11.80;99.90
25949;DHT22;13961;51.178;4.448;2023-04-01T14:36:41;11.70;99.90
25949;DHT22;13961;51.178;4.448;2023-04-01T14:42:31;11.50;99.90
25949;DHT22;13961;51.178;4.448;2023-04-01T14:48:28;11.40;99.90
25949;DHT22;13961;51.178;4.448;2023-04-01T14:53:37;10.90;99.90
25949;DHT22;13961;51.178;4.448;2023-04-01T14:56:04;10.90;99.90
25949;DHT22;13961;51.178;4.448;2023-04-01T14:58:47;11.00;99.90
25949;DHT22;13961;51.178;4.448;2023-04-01T15:01:45;11.00;99.90
25949;DHT22;13961;51.178;4.448;2023-04-01T15:04:35;10.80;99.90
25949;DHT22;13961;51.178;4.448;2023-04-01T15:12:29;10.90;99.90
25949;DHT22;13961;51.178;4.448;2023-04-01T15:15:21;11.00;99.90
25949;DHT22;13961;51.178;4.448;2023-04-01T15:18:13;11.20;99.90
25949;DHT22;13961;51.178;4.448;2023-04-01T15:21:10;11.60;99.90
25949;DHT22;13961;51.178;4.448;2023-04-01T15:24:07;11.10;99.90
25949;DHT22;13961;51.178;4.448;2023-04-01T15:40:54;11.10;99.90
25949;DHT22;13961;51.178;4.448;2023-04-01T15:43:47;11.10;99.90
25949;DHT22;13961;51.178;4.448;2023-04-01T16:00:27;10.30;99.90
25949;DHT22;13961;51.178;4.448;2023-04-01T16:03:19;10.20;99.90
25949;DHT22;13961;51.178;4.448;2023-04-01T16:11:43;9.90;99.90
25949;DHT22;13961;51.178;4.448;2023-04-01T16:19:53;10.00;99.90
25949;DHT22;13961;51.178;4.448;2023-04-01T16:22:34;10.10;99.90
25949;DHT22;13961;51.178;4.448;2023-04-01T16:33:57;10.50;99.90
25949;DHT22;13961;51.178;4.448;2023-04-01T16:36:44;10.40;99.90
25949;DHT22;13961;51.178;4.448;2023-04-01T16:44:52;10.40;99.90
25949;DHT22;13961;51.178;4.448;2023-04-01T16:47:34;10.50;99.90
25949;DHT22;13961;51.178;4.448;2023-04-01T16:52:57;10.50;99.90
25949;DHT22;13961;51.178;4.448;2023-04-01T16:55:35;10.60;99.90
25949;DHT22;13961;51.178;4.448;2023-04-01T16:58:07;10.70;99.90
25949;DHT22;13961;51.178;4.448;2023-04-01T17:00:44;10.80;99.90
25949;DHT22;13961;51.178;4.448;2023-04-01T17:03:23;10.80;99.90
25949;DHT22;13961;51.178;4.448;2023-04-01T17:17:01;10.60;99.90
25949;DHT22;13961;51.178;4.448;2023-04-01T17:19:54;10.60;99.90
25949;DHT22;13961;51.178;4.448;2023-04-01T17:22:37;10.60;99.90
25949;DHT22;13961;51.178;4.448;2023-04-01T17:27:51;10.60;99.90
25949;DHT22;13961;51.178;4.448;2023-04-01T17:39:02;10.80;99.90
25949;DHT22;13961;51.178;4.448;2023-04-01T17:53:11;10.80;99.90
25949;DHT22;13961;51.178;4.448;2023-04-01T17:55:54;10.70;99.90
25949;DHT22;13961;51.178;4.448;2023-04-01T17:58:28;10.60;99.90
25949;DHT22;13961;51.178;4.448;2023-04-01T18:01:05;10.70;99.90
25949;DHT22;13961;51.178;4.448;2023-04-01T18:27:44;10.90;99.90
25949;DHT22;13961;51.178;4.448;2023-04-01T18:30:23;10.90;99.90
25949;DHT22;13961;51.178;4.448;2023-04-01T18:32:57;10.80;99.90
25949;DHT22;13961;51.178;4.448;2023-04-01T18:36:08;10.90;99.90
25949;DHT22;13961;51.178;4.448;2023-04-01T18:38:16;11.00;99.90
25949;DHT22;13961;51.178;4.448;2023-04-01T18:40:47;10.90;99.90
25949;DHT22;13961;51.178;4.448;2023-04-01T18:43:36;10.70;99.90
25949;DHT22;13961;51.178;4.448;2023-04-01T18:49:25;10.90;99.90
25949;DHT22;13961;51.178;4.448;2023-04-01T18:51:58;10.90;99.90
25949;DHT22;13961;51.178;4.448;2023-04-01T18:54:31;10.80;99.90
25949;DHT22;13961;51.178;4.448;2023-04-01T18:57:14;10.80;99.90
25949;DHT22;13961;51.178;4.448;2023-04-01T18:59:54;11.00;99.90
25949;DHT22;13961;51.178;4.448;2023-04-01T19:05:38;10.80;99.90
25949;DHT22;13961;51.178;4.448;2023-04-01T19:08:33;10.80;99.90
25949;DHT22;13961;51.178;4.448;2023-04-01T19:11:25;10.80;99.90
25949;DHT22;13961;51.178;4.448;2023-04-01T19:19:43;10.90;99.90
25949;DHT22;13961;51.178;4.448;2023-04-01T19:25:57;10.80;99.90
25949;DHT22;13961;51.178;4.448;2023-04-01T19:28:34;10.90;99.90
25949;DHT22;13961;51.178;4.448;2023-04-01T19:39:39;11.00;99.90
25949;DHT22;13961;51.178;4.448;2023-04-01T19:59:34;10.80;99.90
25949;DHT22;13961;51.178;4.448;2023-04-01T20:04:43;10.90;99.90
25949;DHT22;13961;51.178;4.448;2023-04-01T20:07:21;10.80;99.90
25949;DHT22;13961;51.178;4.448;2023-04-01T20:12:55;10.70;99.90
25949;DHT22;13961;51.178;4.448;2023-04-01T20:15:36;10.70;99.90
25949;DHT22;13961;51.178;4.448;2023-04-01T20:18:46;10.70;99.90
25949;DHT22;13961;51.178;4.448;2023-04-01T20:21:31;10.70;99.90
25949;DHT22;13961;51.178;4.448;2023-04-01T20:24:20;10.70;99.90
25949;DHT22;13961;51.178;4.448;2023-04-01T20:26:53;10.70;99.90
25949;DHT22;13961;51.178;4.448;2023-04-01T20:38:06;10.70;99.90
25949;DHT22;13961;51.178;4.448;2023-04-01T20:43:23;10.50;99.90
25949;DHT22;13961;51.178;4.448;2023-04-01T20:51:26;10.70;99.90
25949;DHT22;13961;51.178;4.448;2023-04-01T20:54:20;10.70;99.90
25949;DHT22;13961;51.178;4.448;2023-04-01T20:57:03;10.70;99.90
25949;DHT22;13961;51.178;4.448;2023-04-01T21:07:48;10.70;99.90
25949;DHT22;13961;51.178;4.448;2023-04-01T21:25:26;10.30;99.90
25949;DHT22;13961;51.178;4.448;2023-04-01T21:31:05;10.30;99.90
25949;DHT22;13961;51.178;4.448;2023-04-01T21:50:18;10.20;99.90
25949;DHT22;13961;51.178;4.448;2023-04-01T22:01:54;10.20;99.90
25949;DHT22;13961;51.178;4.448;2023-04-01T22:07:19;10.00;99.90
25949;DHT22;13961;51.178;4.448;2023-04-01T22:15:29;10.00;99.90
25949;DHT22;13961;51.178;4.448;2023-04-01T22:20:54;10.00;99.90
25949;DHT22;13961;51.178;4.448;2023-04-01T22:26:36;9.90;99.90
25949;DHT22;13961;51.178;4.448;2023-04-01T22:31:52;9.90;99.90
25949;DHT22;13961;51.178;4.448;2023-04-01T22:37:46;9.80;99.90
25949;DHT22;13961;51.178;4.448;2023-04-01T22:39:55;10.00;99.90
25949;DHT22;13961;51.178;4.448;2023-04-01T22:42:45;9.70;99.90
25949;DHT22;13961;51.178;4.448;2023-04-01T22:56:24;9.80;99.90
25949;DHT22;13961;51.178;4.448;2023-04-01T22:59:00;9.90;99.90
25949;DHT22;13961;51.178;4.448;2023-04-01T23:01:36;9.60;99.90
25949;DHT22;13961;51.178;4.448;2023-04-01T23:04:05;9.60;99.90
25949;DHT22;13961;51.178;4.448;2023-04-01T23:06:39;9.60;99.90
25949;DHT22;13961;51.178;4.448;2023-04-01T23:09:21;9.50;99.90
25949;DHT22;13961;51.178;4.448;2023-04-01T23:12:12;9.60;99.90
25949;DHT22;13961;51.178;4.448;2023-04-01T23:14:44;9.50;99.90
25949;DHT22;13961;51.178;4.448;2023-04-01T23:17:35;9.40;99.90
25949;DHT22;13961;51.178;4.448;2023-04-01T23:22:57;9.50;99.90
25949;DHT22;13961;51.178;4.448;2023-04-01T23:25:31;9.50;99.90
25949;DHT22;13961;51.178;4.448;2023-04-01T23:35:58;9.40;99.90
25949;DHT22;13961;51.178;4.448;2023-04-01T23:38:38;9.40;99.90
25949;DHT22;13961;51.178;4.448;2023-04-01T23:41:08;9.30;99.90
25949;DHT22;13961;51.178;4.448;2023-04-01T23:43:43;9.50;99.90
25949;DHT22;13961;51.178;4.448;2023-04-01T23:46:12;9.20;99.90
25949;DHT22;13961;51.178;4.448;2023-04-01T23:48:41;9.20;99.90
25949;DHT22;13961;51.178;4.448;2023-04-01T23:51:29;9.10;99.90
25949;DHT22;13961;51.178;4.448;2023-04-01T23:54:11;9.10;99.90
25949;DHT22;13961;51.178;4.448;2023-04-01T23:56:41;9.10;99.90
25949;DHT22;13961;51.178;4.448;2023-04-01T23:59:17;9.10;99.90
